sensor_id;sensor_type;location;lat;lon;timestamp;pressure;altitude;pressure_sealevel;temperature;humidity
18436;BME280;9346;52.006;4.720;2023-01-24T00:00:15;103800.25;;;4.39;100.00
18436;BME280;9346;52.006;4.720;2023-01-24T00:02:42;103808.44;;;4.39;100.00
18436;BME280;9346;52.006;4.720;2023-01-24T00:05:11;103791.03;;;4.40;100.00
18436;BME280;9346;52.006;4.720;2023-01-24T00:07:38;103794.78;;;4.39;100.00
18436;BME280;9346;52.006;4.720;2023-01-24T00:10:07;103792.94;;;4.40;100.00
18436;BME280;9346;52.006;4.720;2023-01-24T00:12:34;103796.31;;;4.42;100.00
18436;BME280;9346;52.006;4.720;2023-01-24T00:15:02;103798.91;;;4.43;100.00
18436;BME280;9346;52.006;4.720;2023-01-24T00:17:29;103793.44;;;4.43;100.00
18436;BME280;9346;52.006;4.720;2023-01-24T00:19:56;103796.31;;;4.42;100.00
18436;BME280;9346;52.006;4.720;2023-01-24T00:22:25;103805.53;;;4.41;100.00
18436;BME280;9346;52.006;4.720;2023-01-24T00:24:52;103793.41;;;4.35;100.00
18436;BME280;9346;52.006;4.720;2023-01-24T00:27:19;103798.53;;;4.38;100.00
18436;BME280;9346;52.006;4.720;2023-01-24T00:29:46;103801.28;;;4.38;100.00
18436;BME280;9346;52.006;4.720;2023-01-24T00:32:13;103796.69;;;4.39;100.00
18436;BME280;9346;52.006;4.720;2023-01-24T00:34:41;103797.19;;;4.42;100.00
18436;BME280;9346;52.006;4.720;2023-01-24T00:37:08;103803.69;;;4.41;100.00
18436;BME280;9346;52.006;4.720;2023-01-24T00:39:37;103798.53;;;4.38;100.00
18436;BME280;9346;52.006;4.720;2023-01-24T00:42:04;103800.72;;;4.35;100.00
18436;BME280;9346;52.006;4.720;2023-01-24T00:44:32;103788.97;;;4.34;100.00
18436;BME280;9346;52.006;4.720;2023-01-24T00:46:59;103793.25;;;4.37;100.00
18436;BME280;9346;52.006;4.720;2023-01-24T00:49:26;103788.81;;;4.36;100.00
18436;BME280;9346;52.006;4.720;2023-01-24T00:51:54;103786.75;;;4.38;100.00
18436;BME280;9346;52.006;4.720;2023-01-24T00:54:21;103782.16;;;4.38;100.00
18436;BME280;9346;52.006;4.720;2023-01-24T00:56:50;103784.75;;;4.40;100.00
18436;BME280;9346;52.006;4.720;2023-01-24T00:59:17;103774.66;;;4.40;100.00
18436;BME280;9346;52.006;4.720;2023-01-24T01:01:44;103779.44;;;4.38;100.00
18436;BME280;9346;52.006;4.720;2023-01-24T01:04:11;103778.56;;;4.38;100.00
18436;BME280;9346;52.006;4.720;2023-01-24T01:06:38;103777.75;;;4.37;100.00
18436;BME280;9346;52.006;4.720;2023-01-24T01:09:06;103780.47;;;4.37;100.00
18436;BME280;9346;52.006;4.720;2023-01-24T01:11:33;103776.88;;;4.37;100.00
18436;BME280;9346;52.006;4.720;2023-01-24T01:14:02;103776.88;;;4.37;100.00
18436;BME280;9346;52.006;4.720;2023-01-24T01:16:29;103771.75;;;4.34;100.00
18436;BME280;9346;52.006;4.720;2023-01-24T01:18:58;103767.47;;;4.31;100.00
18436;BME280;9346;52.006;4.720;2023-01-24T01:21:25;103769.34;;;4.31;100.00
18436;BME280;9346;52.006;4.720;2023-01-24T01:23:52;103769.50;;;4.29;100.00
18436;BME280;9346;52.006;4.720;2023-01-24T01:26:21;103770.34;;;4.30;100.00
18436;BME280;9346;52.006;4.720;2023-01-24T01:28:48;103765.06;;;4.28;100.00
18436;BME280;9346;52.006;4.720;2023-01-24T01:31:17;103764.75;;;4.31;100.00
18436;BME280;9346;52.006;4.720;2023-01-24T01:33:44;103768.31;;;4.32;100.00
18436;BME280;9346;52.006;4.720;2023-01-24T01:36:11;103766.75;;;4.29;100.00
18436;BME280;9346;52.006;4.720;2023-01-24T01:38:38;103767.09;;;4.26;100.00
18436;BME280;9346;52.006;4.720;2023-01-24T01:41:06;103771.50;;;4.27;100.00
18436;BME280;9346;52.006;4.720;2023-01-24T01:43:33;103772.38;;;4.28;100.00
18436;BME280;9346;52.006;4.720;2023-01-24T01:46:08;103764.91;;;4.30;100.00
18436;BME280;9346;52.006;4.720;2023-01-24T01:48:49;103763.00;;;4.30;100.00
18436;BME280;9346;52.006;4.720;2023-01-24T01:51:21;103756.56;;;4.31;100.00
18436;BME280;9346;52.006;4.720;2023-01-24T01:53:52;103760.97;;;4.32;100.00
18436;BME280;9346;52.006;4.720;2023-01-24T01:56:24;103752.09;;;4.30;100.00
18436;BME280;9346;52.006;4.720;2023-01-24T01:58:55;103750.72;;;4.26;100.00
18436;BME280;9346;52.006;4.720;2023-01-24T02:01:23;103765.06;;;4.28;100.00
18436;BME280;9346;52.006;4.720;2023-01-24T02:03:58;103760.59;;;4.27;100.00
18436;BME280;9346;52.006;4.720;2023-01-24T02:06:50;103758.75;;;4.28;100.00
18436;BME280;9346;52.006;4.720;2023-01-24T02:09:22;103757.19;;;4.25;100.00
18436;BME280;9346;52.006;4.720;2023-01-24T02:11:52;103760.97;;;4.24;100.00
18436;BME280;9346;52.006;4.720;2023-01-24T02:14:21;103748.16;;;4.25;100.00
18436;BME280;9346;52.006;4.720;2023-01-24T02:17:07;103747.31;;;4.24;100.00
18436;BME280;9346;52.006;4.720;2023-01-24T02:19:50;103752.94;;;4.23;100.00
18436;BME280;9346;52.006;4.720;2023-01-24T02:22:36;103756.66;;;4.22;100.00
18436;BME280;9346;52.006;4.720;2023-01-24T02:25:12;103753.94;;;4.22;100.00
18436;BME280;9346;52.006;4.720;2023-01-24T02:27:43;103759.53;;;4.20;100.00
18436;BME280;9346;52.006;4.720;2023-01-24T02:30:11;103747.81;;;4.20;100.00
18436;BME280;9346;52.006;4.720;2023-01-24T02:32:38;103740.44;;;4.20;100.00
18436;BME280;9346;52.006;4.720;2023-01-24T02:35:06;103757.69;;;4.21;100.00
18436;BME280;9346;52.006;4.720;2023-01-24T02:37:35;103753.41;;;4.18;100.00
18436;BME280;9346;52.006;4.720;2023-01-24T02:40:06;103755.13;;;4.19;100.00
18436;BME280;9346;52.006;4.720;2023-01-24T02:42:35;103758.56;;;4.21;100.00
18436;BME280;9346;52.006;4.720;2023-01-24T02:45:10;103761.28;;;4.21;100.00
18436;BME280;9346;52.006;4.720;2023-01-24T02:47:44;103750.69;;;4.18;100.00
18436;BME280;9346;52.006;4.720;2023-01-24T02:50:12;103756.47;;;4.15;100.00
18436;BME280;9346;52.006;4.720;2023-01-24T02:52:40;103757.63;;;4.13;100.00
18436;BME280;9346;52.006;4.720;2023-01-24T02:55:24;103757.78;;;4.11;100.00
18436;BME280;9346;52.006;4.720;2023-01-24T02:57:52;103757.28;;;4.08;100.00
18436;BME280;9346;52.006;4.720;2023-01-24T03:00:36;103757.44;;;4.06;100.00
18436;BME280;9346;52.006;4.720;2023-01-24T03:03:03;103754.69;;;4.06;100.00
18436;BME280;9346;52.006;4.720;2023-01-24T03:05:31;103756.25;;;4.09;100.00
18436;BME280;9346;52.006;4.720;2023-01-24T03:08:12;103746.38;;;4.08;100.00
18436;BME280;9346;52.006;4.720;2023-01-24T03:10:39;103750.28;;;4.05;100.00
18436;BME280;9346;52.006;4.720;2023-01-24T03:13:06;103748.03;;;4.01;100.00
18436;BME280;9346;52.006;4.720;2023-01-24T03:15:52;103748.84;;;4.01;100.00
18436;BME280;9346;52.006;4.720;2023-01-24T03:18:36;103745.13;;;4.02;100.00
18436;BME280;9346;52.006;4.720;2023-01-24T03:21:19;103751.97;;;4.06;100.00
18436;BME280;9346;52.006;4.720;2023-01-24T03:24:04;103747.06;;;4.10;100.00
18436;BME280;9346;52.006;4.720;2023-01-24T03:26:48;103746.38;;;4.08;100.00
18436;BME280;9346;52.006;4.720;2023-01-24T03:29:33;103743.78;;;4.06;100.00
18436;BME280;9346;52.006;4.720;2023-01-24T03:32:18;103744.50;;;4.08;100.00
18436;BME280;9346;52.006;4.720;2023-01-24T03:35:03;103738.34;;;4.06;100.00
18436;BME280;9346;52.006;4.720;2023-01-24T03:37:31;103743.94;;;4.05;100.00
18436;BME280;9346;52.006;4.720;2023-01-24T03:40:16;103741.06;;;4.06;100.00
18436;BME280;9346;52.006;4.720;2023-01-24T03:42:43;103735.59;;;4.06;100.00
18436;BME280;9346;52.006;4.720;2023-01-24T03:45:15;103732.00;;;4.06;100.00
18436;BME280;9346;52.006;4.720;2023-01-24T03:47:50;103739.03;;;4.08;100.00
18436;BME280;9346;52.006;4.720;2023-01-24T03:50:32;103740.53;;;4.03;100.00
18436;BME280;9346;52.006;4.720;2023-01-24T03:53:18;103745.47;;;3.99;100.00
18436;BME280;9346;52.006;4.720;2023-01-24T03:55:46;103748.34;;;3.98;100.00
18436;BME280;9346;52.006;4.720;2023-01-24T03:58:14;103748.66;;;3.95;100.00
18436;BME280;9346;52.006;4.720;2023-01-24T04:00:41;103742.50;;;3.93;100.00
18436;BME280;9346;52.006;4.720;2023-01-24T04:03:10;103752.25;;;3.95;100.00
18436;BME280;9346;52.006;4.720;2023-01-24T04:05:37;103750.06;;;3.99;100.00
18436;BME280;9346;52.006;4.720;2023-01-24T04:08:05;103745.63;;;3.98;100.00
18436;BME280;9346;52.006;4.720;2023-01-24T04:10:33;103750.22;;;3.97;100.00
18436;BME280;9346;52.006;4.720;2023-01-24T04:13:00;103752.78;;;3.99;100.00
18436;BME280;9346;52.006;4.720;2023-01-24T04:15:29;103748.34;;;3.98;100.00
18436;BME280;9346;52.006;4.720;2023-01-24T04:17:57;103745.47;;;3.99;100.00
18436;BME280;9346;52.006;4.720;2023-01-24T04:20:28;103746.84;;;4.03;100.00
18436;BME280;9346;52.006;4.720;2023-01-24T04:22:55;103743.94;;;4.05;100.00
18436;BME280;9346;52.006;4.720;2023-01-24T04:25:22;103744.81;;;4.05;100.00
18436;BME280;9346;52.006;4.720;2023-01-24T04:27:49;103744.44;;;4.00;100.00
18436;BME280;9346;52.006;4.720;2023-01-24T04:30:17;103734.38;;;4.01;100.00
18436;BME280;9346;52.006;4.720;2023-01-24T04:32:44;103734.38;;;4.01;100.00
18436;BME280;9346;52.006;4.720;2023-01-24T04:35:15;103745.97;;;4.03;100.00
18436;BME280;9346;52.006;4.720;2023-01-24T04:37:44;103734.56;;;3.99;100.00
18436;BME280;9346;52.006;4.720;2023-01-24T04:40:12;103740.31;;;3.96;100.00
18436;BME280;9346;52.006;4.720;2023-01-24T04:42:40;103750.38;;;3.96;100.00
18436;BME280;9346;52.006;4.720;2023-01-24T04:45:09;103744.91;;;3.96;100.00
18436;BME280;9346;52.006;4.720;2023-01-24T04:47:36;103748.81;;;3.93;100.00
18436;BME280;9346;52.006;4.720;2023-01-24T04:50:04;103756.13;;;3.93;100.00
18436;BME280;9346;52.006;4.720;2023-01-24T04:52:31;103749.69;;;3.94;100.00
18436;BME280;9346;52.006;4.720;2023-01-24T04:55:01;103753.25;;;3.94;100.00
18436;BME280;9346;52.006;4.720;2023-01-24T04:57:28;103758.38;;;3.97;100.00
18436;BME280;9346;52.006;4.720;2023-01-24T04:59:55;103764.88;;;3.96;100.00
18436;BME280;9346;52.006;4.720;2023-01-24T05:02:22;103762.16;;;3.96;100.00
18436;BME280;9346;52.006;4.720;2023-01-24T05:04:49;103763.16;;;3.95;100.00
18436;BME280;9346;52.006;4.720;2023-01-24T05:07:16;103769.16;;;3.99;100.00
18436;BME280;9346;52.006;4.720;2023-01-24T05:09:43;103776.81;;;3.95;100.00
18436;BME280;9346;52.006;4.720;2023-01-24T05:12:13;103772.50;;;3.93;100.00
18436;BME280;9346;52.006;4.720;2023-01-24T05:14:40;103767.44;;;3.98;100.00
18436;BME280;9346;52.006;4.720;2023-01-24T05:17:07;103771.00;;;3.98;100.00
18436;BME280;9346;52.006;4.720;2023-01-24T05:19:34;103770.16;;;3.98;100.00
18436;BME280;9346;52.006;4.720;2023-01-24T05:22:02;103764.72;;;3.98;100.00
18436;BME280;9346;52.006;4.720;2023-01-24T05:24:29;103760.25;;;3.97;100.00
18436;BME280;9346;52.006;4.720;2023-01-24T05:26:56;103767.59;;;3.96;100.00
18436;BME280;9346;52.006;4.720;2023-01-24T05:29:25;103770.16;;;3.98;100.00
18436;BME280;9346;52.006;4.720;2023-01-24T05:31:52;103772.03;;;3.97;100.00
18436;BME280;9346;52.006;4.720;2023-01-24T05:34:20;103774.75;;;3.97;100.00
18436;BME280;9346;52.006;4.720;2023-01-24T05:36:47;103777.81;;;3.94;100.00
18436;BME280;9346;52.006;4.720;2023-01-24T05:39:14;103777.81;;;3.94;100.00
18436;BME280;9346;52.006;4.720;2023-01-24T05:41:45;103776.09;;;3.93;100.00
18436;BME280;9346;52.006;4.720;2023-01-24T05:44:12;103780.53;;;3.94;100.00
18436;BME280;9346;52.006;4.720;2023-01-24T05:46:42;103785.66;;;3.97;100.00
18436;BME280;9346;52.006;4.720;2023-01-24T05:49:09;103782.06;;;3.97;100.00
18436;BME280;9346;52.006;4.720;2023-01-24T05:51:36;103786.69;;;3.96;100.00
18436;BME280;9346;52.006;4.720;2023-01-24T05:54:04;103782.94;;;3.97;100.00
18436;BME280;9346;52.006;4.720;2023-01-24T05:56:31;103788.41;;;3.97;100.00
18436;BME280;9346;52.006;4.720;2023-01-24T05:58:58;103785.66;;;3.97;100.00
18436;BME280;9346;52.006;4.720;2023-01-24T06:01:27;103792.81;;;3.98;100.00
18436;BME280;9346;52.006;4.720;2023-01-24T06:03:56;103794.88;;;3.96;100.00
18436;BME280;9346;52.006;4.720;2023-01-24T06:06:24;103791.75;;;3.91;100.00
18436;BME280;9346;52.006;4.720;2023-01-24T06:08:51;103790.06;;;3.90;100.00
18436;BME280;9346;52.006;4.720;2023-01-24T06:11:20;103787.66;;;3.87;100.00
18436;BME280;9346;52.006;4.720;2023-01-24T06:13:48;103792.72;;;3.82;100.00
18436;BME280;9346;52.006;4.720;2023-01-24T06:16:17;103796.16;;;3.84;100.00
18436;BME280;9346;52.006;4.720;2023-01-24T06:18:45;103798.16;;;3.82;100.00
18436;BME280;9346;52.006;4.720;2023-01-24T06:21:26;103798.16;;;3.82;100.00
18436;BME280;9346;52.006;4.720;2023-01-24T06:23:58;103800.06;;;3.82;100.00
18436;BME280;9346;52.006;4.720;2023-01-24T06:26:26;103792.91;;;3.81;100.00
18436;BME280;9346;52.006;4.720;2023-01-24T06:28:54;103797.00;;;3.85;100.00
18436;BME280;9346;52.006;4.720;2023-01-24T06:31:29;103795.66;;;3.89;100.00
18436;BME280;9346;52.006;4.720;2023-01-24T06:34:14;103807.59;;;3.88;100.00
18436;BME280;9346;52.006;4.720;2023-01-24T06:36:56;103806.72;;;3.87;100.00
18436;BME280;9346;52.006;4.720;2023-01-24T06:39:26;103815.78;;;3.88;100.00
18436;BME280;9346;52.006;4.720;2023-01-24T06:41:54;103812.34;;;3.86;100.00
18436;BME280;9346;52.006;4.720;2023-01-24T06:44:22;103817.97;;;3.84;100.00
18436;BME280;9346;52.006;4.720;2023-01-24T06:46:49;103816.25;;;3.83;100.00
18436;BME280;9346;52.006;4.720;2023-01-24T06:49:17;103808.22;;;3.82;100.00
18436;BME280;9346;52.006;4.720;2023-01-24T06:51:51;103815.69;;;3.80;100.00
18436;BME280;9346;52.006;4.720;2023-01-24T06:54:18;103812.81;;;3.81;100.00
18436;BME280;9346;52.006;4.720;2023-01-24T06:56:45;103821.00;;;3.81;100.00
18436;BME280;9346;52.006;4.720;2023-01-24T06:59:12;103818.28;;;3.81;100.00
18436;BME280;9346;52.006;4.720;2023-01-24T07:01:40;103814.16;;;3.77;100.00
18436;BME280;9346;52.006;4.720;2023-01-24T07:04:07;103814.47;;;3.74;100.00
18436;BME280;9346;52.006;4.720;2023-01-24T07:06:34;103816.34;;;3.74;100.00
18436;BME280;9346;52.006;4.720;2023-01-24T07:09:03;103825.22;;;3.76;100.00
18436;BME280;9346;52.006;4.720;2023-01-24T07:11:30;103810.03;;;3.73;100.00
18436;BME280;9346;52.006;4.720;2023-01-24T07:13:58;103815.50;;;3.73;100.00
18436;BME280;9346;52.006;4.720;2023-01-24T07:16:25;103820.63;;;3.76;100.00
18436;BME280;9346;52.006;4.720;2023-01-24T07:18:52;103820.31;;;3.79;100.00
18436;BME280;9346;52.006;4.720;2023-01-24T07:21:20;103820.31;;;3.79;100.00
18436;BME280;9346;52.006;4.720;2023-01-24T07:23:49;103828.34;;;3.81;100.00
18436;BME280;9346;52.006;4.720;2023-01-24T07:26:19;103823.06;;;3.79;100.00
18436;BME280;9346;52.006;4.720;2023-01-24T07:28:46;103822.19;;;3.79;100.00
18436;BME280;9346;52.006;4.720;2023-01-24T07:31:14;103822.34;;;3.77;100.00
18436;BME280;9346;52.006;4.720;2023-01-24T07:33:41;103827.09;;;3.75;100.00
18436;BME280;9346;52.006;4.720;2023-01-24T07:36:12;103841.44;;;3.77;100.00
18436;BME280;9346;52.006;4.720;2023-01-24T07:38:39;103841.91;;;3.73;100.00
18436;BME280;9346;52.006;4.720;2023-01-24T07:41:07;103835.56;;;3.72;100.00
18436;BME280;9346;52.006;4.720;2023-01-24T07:43:36;103842.75;;;3.73;100.00
18436;BME280;9346;52.006;4.720;2023-01-24T07:46:04;103844.06;;;3.69;100.00
18436;BME280;9346;52.006;4.720;2023-01-24T07:48:31;103844.41;;;3.66;100.00
18436;BME280;9346;52.006;4.720;2023-01-24T07:50:58;103853.44;;;3.67;100.00
18436;BME280;9346;52.006;4.720;2023-01-24T07:53:26;103850.03;;;3.65;100.00
18436;BME280;9346;52.006;4.720;2023-01-24T07:55:53;103849.66;;;3.68;100.00
18436;BME280;9346;52.006;4.720;2023-01-24T07:58:21;103854.13;;;3.69;100.00
18436;BME280;9346;52.006;4.720;2023-01-24T08:00:50;103853.97;;;3.70;100.00
18436;BME280;9346;52.006;4.720;2023-01-24T08:03:18;103854.97;;;3.69;100.00
18436;BME280;9346;52.006;4.720;2023-01-24T08:05:45;103870.34;;;3.70;100.00
18436;BME280;9346;52.006;4.720;2023-01-24T08:08:12;103863.88;;;3.71;100.00
18436;BME280;9346;52.006;4.720;2023-01-24T08:10:39;103856.00;;;3.68;100.00
18436;BME280;9346;52.006;4.720;2023-01-24T08:13:06;103864.88;;;3.70;100.00
18436;BME280;9346;52.006;4.720;2023-01-24T08:15:34;103863.16;;;3.69;100.00
18436;BME280;9346;52.006;4.720;2023-01-24T08:18:03;103863.16;;;3.69;100.00
18436;BME280;9346;52.006;4.720;2023-01-24T08:20:30;103865.03;;;3.69;100.00
18436;BME280;9346;52.006;4.720;2023-01-24T08:22:58;103865.50;;;3.64;100.00
18436;BME280;9346;52.006;4.720;2023-01-24T08:25:25;103869.56;;;3.60;100.00
18436;BME280;9346;52.006;4.720;2023-01-24T08:27:53;103869.56;;;3.60;100.00
18436;BME280;9346;52.006;4.720;2023-01-24T08:30:20;103864.13;;;3.60;100.00
18436;BME280;9346;52.006;4.720;2023-01-24T08:32:48;103861.84;;;3.56;100.00
18436;BME280;9346;52.006;4.720;2023-01-24T08:35:17;103871.16;;;3.53;100.00
18436;BME280;9346;52.006;4.720;2023-01-24T08:37:44;103878.06;;;3.57;100.00
18436;BME280;9346;52.006;4.720;2023-01-24T08:40:12;103885.78;;;3.62;100.00
18436;BME280;9346;52.006;4.720;2023-01-24T08:42:39;103883.88;;;3.62;100.00
18436;BME280;9346;52.006;4.720;2023-01-24T08:45:07;103881.16;;;3.62;100.00
18436;BME280;9346;52.006;4.720;2023-01-24T08:47:35;103880.84;;;3.65;100.00
18436;BME280;9346;52.006;4.720;2023-01-24T08:50:02;103883.56;;;3.65;100.00
18436;BME280;9346;52.006;4.720;2023-01-24T08:52:31;103883.56;;;3.65;100.00
18436;BME280;9346;52.006;4.720;2023-01-24T08:54:58;103885.78;;;3.62;100.00
18436;BME280;9346;52.006;4.720;2023-01-24T08:57:25;103886.22;;;3.57;100.00
18436;BME280;9346;52.006;4.720;2023-01-24T08:59:52;103883.56;;;3.48;100.00
18436;BME280;9346;52.006;4.720;2023-01-24T09:02:20;103880.47;;;3.43;100.00
18436;BME280;9346;52.006;4.720;2023-01-24T09:04:47;103894.63;;;3.46;100.00
18436;BME280;9346;52.006;4.720;2023-01-24T09:07:14;103893.16;;;3.52;100.00
18436;BME280;9346;52.006;4.720;2023-01-24T09:09:43;103889.94;;;3.56;100.00
18436;BME280;9346;52.006;4.720;2023-01-24T09:12:10;103896.25;;;3.57;100.00
18436;BME280;9346;52.006;4.720;2023-01-24T09:14:37;103897.81;;;3.59;100.00
18436;BME280;9346;52.006;4.720;2023-01-24T09:17:04;103897.66;;;3.61;100.00
18436;BME280;9346;52.006;4.720;2023-01-24T09:19:31;103901.81;;;3.65;100.00
18436;BME280;9346;52.006;4.720;2023-01-24T09:21:59;103906.94;;;3.68;100.00
18436;BME280;9346;52.006;4.720;2023-01-24T09:24:26;103903.53;;;3.66;100.00
18436;BME280;9346;52.006;4.720;2023-01-24T09:26:55;103907.72;;;3.60;100.00
18436;BME280;9346;52.006;4.720;2023-01-24T09:29:23;103903.09;;;3.61;100.00
18436;BME280;9346;52.006;4.720;2023-01-24T09:31:50;103907.00;;;3.58;100.00
18436;BME280;9346;52.006;4.720;2023-01-24T09:34:20;103905.47;;;3.56;100.00
18436;BME280;9346;52.006;4.720;2023-01-24T09:36:47;103905.16;;;3.59;100.00
18436;BME280;9346;52.006;4.720;2023-01-24T09:39:15;103910.16;;;3.63;100.00
18436;BME280;9346;52.006;4.720;2023-01-24T09:41:50;103910.16;;;3.63;100.00
18436;BME280;9346;52.006;4.720;2023-01-24T09:44:27;103912.31;;;3.60;100.00
18436;BME280;9346;52.006;4.720;2023-01-24T09:47:13;103920.66;;;3.58;100.00
18436;BME280;9346;52.006;4.720;2023-01-24T09:49:47;103922.34;;;3.59;100.00
18436;BME280;9346;52.006;4.720;2023-01-24T09:52:24;103922.66;;;3.56;100.00
18436;BME280;9346;52.006;4.720;2023-01-24T09:54:58;103931.31;;;3.52;100.00
18436;BME280;9346;52.006;4.720;2023-01-24T09:57:29;103924.28;;;3.49;100.00
18436;BME280;9346;52.006;4.720;2023-01-24T10:00:09;103925.00;;;3.51;100.00
18436;BME280;9346;52.006;4.720;2023-01-24T10:02:39;103930.47;;;3.51;100.00
18436;BME280;9346;52.006;4.720;2023-01-24T10:05:12;103932.63;;;3.48;100.00
18436;BME280;9346;52.006;4.720;2023-01-24T10:08:10;103929.44;;;3.52;100.00
18436;BME280;9346;52.006;4.720;2023-01-24T10:10:51;103930.69;;;3.58;100.00
18436;BME280;9346;52.006;4.720;2023-01-24T10:13:39;103923.22;;;3.60;100.00
18436;BME280;9346;52.006;4.720;2023-01-24T10:16:21;103928.38;;;3.63;100.00
18436;BME280;9346;52.006;4.720;2023-01-24T10:19:03;103922.59;;;3.66;100.00
18436;BME280;9346;52.006;4.720;2023-01-24T10:21:47;103927.91;;;3.67;100.00
18436;BME280;9346;52.006;4.720;2023-01-24T10:24:20;103926.88;;;3.68;100.00
18436;BME280;9346;52.006;4.720;2023-01-24T10:26:49;103930.00;;;3.73;100.00
18436;BME280;9346;52.006;4.720;2023-01-24T10:29:18;103933.97;;;3.79;100.00
18436;BME280;9346;52.006;4.720;2023-01-24T10:31:56;103929.06;;;3.82;100.00
18436;BME280;9346;52.006;4.720;2023-01-24T10:34:31;103928.06;;;3.83;100.00
18436;BME280;9346;52.006;4.720;2023-01-24T10:37:00;103925.34;;;3.83;100.00
18436;BME280;9346;52.006;4.720;2023-01-24T10:39:30;103920.03;;;3.82;100.00
18436;BME280;9346;52.006;4.720;2023-01-24T10:41:57;103917.63;;;3.79;100.00
18436;BME280;9346;52.006;4.720;2023-01-24T10:44:26;103926.66;;;3.79;100.00
18436;BME280;9346;52.006;4.720;2023-01-24T10:47:21;103914.59;;;3.82;100.00
18436;BME280;9346;52.006;4.720;2023-01-24T10:49:58;103915.09;;;3.85;100.00
18436;BME280;9346;52.006;4.720;2023-01-24T10:52:26;103919.88;;;3.83;100.00
18436;BME280;9346;52.006;4.720;2023-01-24T10:54:54;103916.59;;;3.80;100.00
18436;BME280;9346;52.006;4.720;2023-01-24T10:57:37;103910.47;;;3.78;100.00
18436;BME280;9346;52.006;4.720;2023-01-24T11:00:27;103914.03;;;3.78;100.00
18436;BME280;9346;52.006;4.720;2023-01-24T11:03:02;103909.59;;;3.77;100.00
18436;BME280;9346;52.006;4.720;2023-01-24T11:05:38;103911.00;;;3.81;100.00
18436;BME280;9346;52.006;4.720;2023-01-24T11:08:09;103905.53;;;3.81;100.00
18436;BME280;9346;52.006;4.720;2023-01-24T11:10:42;103896.66;;;3.79;100.00
18436;BME280;9346;52.006;4.720;2023-01-24T11:13:25;103897.81;;;3.77;100.00
18436;BME280;9346;52.006;4.720;2023-01-24T11:15:58;103895.72;;;3.71;100.00
18436;BME280;9346;52.006;4.720;2023-01-24T11:18:29;103893.53;;;3.74;100.00
18436;BME280;9346;52.006;4.720;2023-01-24T11:21:05;103894.09;;;3.78;100.00
18436;BME280;9346;52.006;4.720;2023-01-24T11:23:33;103890.50;;;3.77;100.00
18436;BME280;9346;52.006;4.720;2023-01-24T11:26:02;103888.81;;;3.76;100.00
18436;BME280;9346;52.006;4.720;2023-01-24T11:28:31;103887.22;;;3.74;100.00
18436;BME280;9346;52.006;4.720;2023-01-24T11:31:01;103888.25;;;3.73;100.00
18436;BME280;9346;52.006;4.720;2023-01-24T11:33:54;103885.91;;;3.78;100.00
18436;BME280;9346;52.006;4.720;2023-01-24T11:36:36;103889.19;;;3.81;100.00
18436;BME280;9346;52.006;4.720;2023-01-24T11:39:13;103887.00;;;3.85;100.00
18436;BME280;9346;52.006;4.720;2023-01-24T11:41:49;103880.84;;;3.83;100.00
18436;BME280;9346;52.006;4.720;2023-01-24T11:44:37;103880.53;;;3.86;100.00
18436;BME280;9346;52.006;4.720;2023-01-24T11:47:12;103873.38;;;3.85;100.00
18436;BME280;9346;52.006;4.720;2023-01-24T11:49:54;103871.31;;;3.87;100.00
18436;BME280;9346;52.006;4.720;2023-01-24T11:52:43;103868.75;;;3.85;100.00
18436;BME280;9346;52.006;4.720;2023-01-24T11:55:22;103868.75;;;3.85;100.00
18436;BME280;9346;52.006;4.720;2023-01-24T11:57:59;103859.19;;;3.81;100.00
18436;BME280;9346;52.006;4.720;2023-01-24T12:00:34;103865.66;;;3.80;100.00
18436;BME280;9346;52.006;4.720;2023-01-24T12:03:33;103854.50;;;3.74;100.00
18436;BME280;9346;52.006;4.720;2023-01-24T12:06:16;103852.09;;;3.71;100.00
18436;BME280;9346;52.006;4.720;2023-01-24T12:08:56;103854.66;;;3.72;100.00
18436;BME280;9346;52.006;4.720;2023-01-24T12:11:29;103842.38;;;3.68;100.00
18436;BME280;9346;52.006;4.720;2023-01-24T12:14:10;103843.75;;;3.72;100.00
18436;BME280;9346;52.006;4.720;2023-01-24T12:16:51;103844.53;;;3.82;100.00
18436;BME280;9346;52.006;4.720;2023-01-24T12:19:33;103835.56;;;3.90;100.00
18436;BME280;9346;52.006;4.720;2023-01-24T12:22:12;103840.53;;;3.94;100.00
18436;BME280;9346;52.006;4.720;2023-01-24T12:24:43;103829.78;;;3.93;100.00
18436;BME280;9346;52.006;4.720;2023-01-24T12:27:16;103826.53;;;3.89;100.00
18436;BME280;9346;52.006;4.720;2023-01-24T12:29:50;103817.97;;;3.84;100.00
18436;BME280;9346;52.006;4.720;2023-01-24T12:32:23;103811.63;;;3.84;100.00
18436;BME280;9346;52.006;4.720;2023-01-24T12:34:57;103812.50;;;3.84;100.00
18436;BME280;9346;52.006;4.720;2023-01-24T12:37:34;103815.38;;;3.83;100.00
18436;BME280;9346;52.006;4.720;2023-01-24T12:40:14;103812.81;;;3.81;100.00
18436;BME280;9346;52.006;4.720;2023-01-24T12:42:55;103808.53;;;3.79;100.00
18436;BME280;9346;52.006;4.720;2023-01-24T12:45:29;103805.34;;;3.83;100.00
18436;BME280;9346;52.006;4.720;2023-01-24T12:48:03;103812.03;;;3.89;100.00
18436;BME280;9346;52.006;4.720;2023-01-24T12:50:40;103801.69;;;3.92;100.00
18436;BME280;9346;52.006;4.720;2023-01-24T12:53:17;103811.72;;;3.92;100.00
18436;BME280;9346;52.006;4.720;2023-01-24T12:55:52;103812.66;;;3.83;100.00
18436;BME280;9346;52.006;4.720;2023-01-24T12:58:24;103808.88;;;3.76;100.00
18436;BME280;9346;52.006;4.720;2023-01-24T13:01:01;103805.59;;;3.72;100.00
18436;BME280;9346;52.006;4.720;2023-01-24T13:03:58;103809.41;;;3.79;100.00
18436;BME280;9346;52.006;4.720;2023-01-24T13:06:41;103814.53;;;3.82;100.00
18436;BME280;9346;52.006;4.720;2023-01-24T13:09:20;103810.97;;;3.82;100.00
18436;BME280;9346;52.006;4.720;2023-01-24T13:11:49;103803.97;;;3.79;100.00
18436;BME280;9346;52.006;4.720;2023-01-24T13:14:21;103796.84;;;3.86;100.00
18436;BME280;9346;52.006;4.720;2023-01-24T13:16:58;103795.91;;;3.95;100.00
18436;BME280;9346;52.006;4.720;2023-01-24T13:19:43;103793.16;;;3.95;100.00
18436;BME280;9346;52.006;4.720;2023-01-24T13:22:29;103788.34;;;3.89;100.00